sensor_id;sensor_type;location;lat;lon;timestamp;pressure;altitude;pressure_sealevel;temperature;humidity
43115;BME280;28727;50.068;14.452;2023-01-19T00:02:12;97995.78;;;2.60;64.00
43115;BME280;28727;50.068;14.452;2023-01-19T00:04:44;97993.50;;;2.57;63.82
43115;BME280;28727;50.068;14.452;2023-01-19T00:07:16;97992.47;;;2.50;64.58
43115;BME280;28727;50.068;14.452;2023-01-19T00:09:47;97997.31;;;2.44;64.13
43115;BME280;28727;50.068;14.452;2023-01-19T00:12:22;97995.81;;;2.42;64.88
43115;BME280;28727;50.068;14.452;2023-01-19T00:14:54;98005.47;;;2.41;64.72
43115;BME280;28727;50.068;14.452;2023-01-19T00:17:25;97995.31;;;2.38;64.49
43115;BME280;28727;50.068;14.452;2023-01-19T00:19:57;98010.94;;;2.38;64.90
43115;BME280;28727;50.068;14.452;2023-01-19T00:22:29;98006.69;;;2.37;65.04
43115;BME280;28727;50.068;14.452;2023-01-19T00:25:01;98007.53;;;2.38;64.57
43115;BME280;28727;50.068;14.452;2023-01-19T00:27:34;98004.41;;;2.34;65.09
43115;BME280;28727;50.068;14.452;2023-01-19T00:30:08;98006.47;;;2.31;64.23
43115;BME280;28727;50.068;14.452;2023-01-19T00:32:40;97998.44;;;2.24;64.69
43115;BME280;28727;50.068;14.452;2023-01-19T00:35:12;98004.66;;;2.23;65.11
43115;BME280;28727;50.068;14.452;2023-01-19T00:37:44;98004.56;;;2.15;65.03
43115;BME280;28727;50.068;14.452;2023-01-19T00:40:16;98013.94;;;2.08;64.79
43115;BME280;28727;50.068;14.452;2023-01-19T00:42:48;98003.28;;;2.01;65.29
43115;BME280;28727;50.068;14.452;2023-01-19T00:45:22;98014.00;;;1.98;65.10
43115;BME280;28727;50.068;14.452;2023-01-19T00:47:54;98013.34;;;1.96;65.12
43115;BME280;28727;50.068;14.452;2023-01-19T00:50:31;98030.72;;;1.96;65.31
43115;BME280;28727;50.068;14.452;2023-01-19T00:53:03;98042.22;;;2.03;65.12
43115;BME280;28727;50.068;14.452;2023-01-19T00:55:34;98049.50;;;1.99;65.60
43115;BME280;28727;50.068;14.452;2023-01-19T00:58:06;98044.28;;;1.99;65.09
43115;BME280;28727;50.068;14.452;2023-01-19T01:00:38;98050.91;;;1.94;65.25
43115;BME280;28727;50.068;14.452;2023-01-19T01:03:10;98059.00;;;1.91;65.48
43115;BME280;28727;50.068;14.452;2023-01-19T01:05:45;98064.34;;;1.89;65.04
43115;BME280;28727;50.068;14.452;2023-01-19T01:08:16;98062.72;;;1.88;65.37
43115;BME280;28727;50.068;14.452;2023-01-19T01:10:49;98070.38;;;1.90;64.96
43115;BME280;28727;50.068;14.452;2023-01-19T01:13:21;98072.41;;;1.96;65.40
43115;BME280;28727;50.068;14.452;2023-01-19T01:15:57;98074.03;;;1.97;64.58
43115;BME280;28727;50.068;14.452;2023-01-19T01:18:29;98072.56;;;1.94;64.73
43115;BME280;28727;50.068;14.452;2023-01-19T01:21:05;98079.25;;;1.97;64.86
43115;BME280;28727;50.068;14.452;2023-01-19T01:23:37;98081.84;;;1.97;64.82
43115;BME280;28727;50.068;14.452;2023-01-19T01:26:09;98093.22;;;1.96;65.38
43115;BME280;28727;50.068;14.452;2023-01-19T01:28:41;98099.19;;;1.88;65.17
43115;BME280;28727;50.068;14.452;2023-01-19T01:31:13;98102.75;;;1.87;65.37
43115;BME280;28727;50.068;14.452;2023-01-19T01:33:44;98106.31;;;1.86;65.08
43115;BME280;28727;50.068;14.452;2023-01-19T01:36:19;98113.16;;;1.87;65.19
43115;BME280;28727;50.068;14.452;2023-01-19T01:38:51;98118.88;;;1.91;64.86
43115;BME280;28727;50.068;14.452;2023-01-19T01:41:22;98126.00;;;1.89;64.78
43115;BME280;28727;50.068;14.452;2023-01-19T01:43:57;98130.25;;;1.90;64.70
43115;BME280;28727;50.068;14.452;2023-01-19T01:46:30;98128.84;;;1.95;64.55
43115;BME280;28727;50.068;14.452;2023-01-19T01:49:09;98134.31;;;2.02;63.80
43115;BME280;28727;50.068;14.452;2023-01-19T01:51:49;98140.63;;;1.99;63.64
43115;BME280;28727;50.068;14.452;2023-01-19T01:54:28;98144.66;;;1.94;63.58
43115;BME280;28727;50.068;14.452;2023-01-19T01:57:05;98144.22;;;1.98;63.92
43115;BME280;28727;50.068;14.452;2023-01-19T01:59:47;98147.19;;;2.03;63.54
43115;BME280;28727;50.068;14.452;2023-01-19T02:02:24;98148.41;;;2.09;63.24
43115;BME280;28727;50.068;14.452;2023-01-19T02:08:09;98149.59;;;2.15;63.42
43115;BME280;28727;50.068;14.452;2023-01-19T02:11:02;98152.66;;;2.10;63.40
43115;BME280;28727;50.068;14.452;2023-01-19T02:13:52;98151.00;;;2.09;63.34
43115;BME280;28727;50.068;14.452;2023-01-19T02:16:24;98156.66;;;2.04;63.24
43115;BME280;28727;50.068;14.452;2023-01-19T02:18:56;98157.09;;;2.00;63.82
43115;BME280;28727;50.068;14.452;2023-01-19T02:21:35;98154.75;;;1.97;63.43
43115;BME280;28727;50.068;14.452;2023-01-19T02:24:09;98154.66;;;1.89;64.01
43115;BME280;28727;50.068;14.452;2023-01-19T02:26:43;98160.97;;;1.86;64.26
43115;BME280;28727;50.068;14.452;2023-01-19T02:29:23;98159.75;;;1.81;64.64
43115;BME280;28727;50.068;14.452;2023-01-19T02:31:56;98153.22;;;1.77;64.93
43115;BME280;28727;50.068;14.452;2023-01-19T02:34:30;98157.19;;;1.71;65.63
43115;BME280;28727;50.068;14.452;2023-01-19T02:37:07;98160.47;;;1.73;65.61
43115;BME280;28727;50.068;14.452;2023-01-19T02:39:44;98162.81;;;1.76;65.78
43115;BME280;28727;50.068;14.452;2023-01-19T02:42:22;98158.69;;;1.74;66.03
43115;BME280;28727;50.068;14.452;2023-01-19T02:44:56;98154.88;;;1.68;66.63
43115;BME280;28727;50.068;14.452;2023-01-19T02:47:36;98152.72;;;1.63;66.61
43115;BME280;28727;50.068;14.452;2023-01-19T02:50:38;98149.72;;;1.58;66.87
43115;BME280;28727;50.068;14.452;2023-01-19T03:05:15;98142.56;;;1.60;67.94
43115;BME280;28727;50.068;14.452;2023-01-19T03:08:05;98152.97;;;1.60;67.77
43115;BME280;28727;50.068;14.452;2023-01-19T03:10:50;98150.66;;;1.57;67.65
43115;BME280;28727;50.068;14.452;2023-01-19T03:16:37;98148.34;;;1.54;67.25
43115;BME280;28727;50.068;14.452;2023-01-19T03:19:23;98147.94;;;1.49;67.93
43115;BME280;28727;50.068;14.452;2023-01-19T03:22:02;98152.19;;;1.50;67.93
43115;BME280;28727;50.068;14.452;2023-01-19T03:24:36;98147.00;;;1.50;67.85
43115;BME280;28727;50.068;14.452;2023-01-19T03:27:18;98146.16;;;1.50;67.99
43115;BME280;28727;50.068;14.452;2023-01-19T03:30:04;98145.34;;;1.49;67.36
43115;BME280;28727;50.068;14.452;2023-01-19T03:32:46;98145.81;;;1.35;67.67
43115;BME280;28727;50.068;14.452;2023-01-19T03:35:21;98145.16;;;1.23;68.16
43115;BME280;28727;50.068;14.452;2023-01-19T03:37:59;98150.47;;;1.22;68.16
43115;BME280;28727;50.068;14.452;2023-01-19T03:40:35;98151.69;;;1.18;68.10
43115;BME280;28727;50.068;14.452;2023-01-19T03:43:07;98161.97;;;1.19;68.53
43115;BME280;28727;50.068;14.452;2023-01-19T03:45:40;98155.94;;;1.19;68.27
43115;BME280;28727;50.068;14.452;2023-01-19T03:48:13;98156.09;;;1.17;68.50
43115;BME280;28727;50.068;14.452;2023-01-19T03:50:47;98158.41;;;1.20;68.48
43115;BME280;28727;50.068;14.452;2023-01-19T03:53:20;98155.81;;;1.20;68.17
43115;BME280;28727;50.068;14.452;2023-01-19T03:55:53;98162.94;;;1.18;68.21
43115;BME280;28727;50.068;14.452;2023-01-19T03:58:25;98156.78;;;1.19;68.50
43115;BME280;28727;50.068;14.452;2023-01-19T04:01:00;98160.59;;;1.25;68.29
43115;BME280;28727;50.068;14.452;2023-01-19T04:03:32;98159.22;;;1.31;68.30
43115;BME280;28727;50.068;14.452;2023-01-19T04:06:04;98159.38;;;1.29;68.63
43115;BME280;28727;50.068;14.452;2023-01-19T04:08:36;98152.09;;;1.33;68.19
43115;BME280;28727;50.068;14.452;2023-01-19T04:11:07;98167.56;;;1.34;68.41
43115;BME280;28727;50.068;14.452;2023-01-19T04:13:40;98163.59;;;1.40;68.41
43115;BME280;28727;50.068;14.452;2023-01-19T04:16:11;98158.91;;;1.43;68.29
43115;BME280;28727;50.068;14.452;2023-01-19T04:18:43;98169.59;;;1.50;67.81
43115;BME280;28727;50.068;14.452;2023-01-19T04:21:15;98168.50;;;1.52;67.87
43115;BME280;28727;50.068;14.452;2023-01-19T04:23:47;98158.75;;;1.54;67.50
43115;BME280;28727;50.068;14.452;2023-01-19T04:26:20;98174.22;;;1.56;67.23
43115;BME280;28727;50.068;14.452;2023-01-19T04:28:52;98181.91;;;1.57;66.90
43115;BME280;28727;50.068;14.452;2023-01-19T04:31:26;98176.41;;;1.60;66.67
43115;BME280;28727;50.068;14.452;2023-01-19T04:33:58;98175.47;;;1.42;66.65
43115;BME280;28727;50.068;14.452;2023-01-19T04:36:30;98177.69;;;1.37;67.02
43115;BME280;28727;50.068;14.452;2023-01-19T04:39:01;98190.03;;;1.35;65.96
43115;BME280;28727;50.068;14.452;2023-01-19T04:41:33;98196.31;;;1.33;65.75
43115;BME280;28727;50.068;14.452;2023-01-19T04:44:06;98189.91;;;1.27;65.50
43115;BME280;28727;50.068;14.452;2023-01-19T04:46:39;98196.06;;;1.16;65.58
43115;BME280;28727;50.068;14.452;2023-01-19T04:49:11;98191.28;;;1.12;65.45
43115;BME280;28727;50.068;14.452;2023-01-19T04:51:43;98199.88;;;1.12;65.54
43115;BME280;28727;50.068;14.452;2023-01-19T04:54:14;98190.59;;;1.10;65.78
43115;BME280;28727;50.068;14.452;2023-01-19T04:56:46;98195.78;;;1.10;65.06
43115;BME280;28727;50.068;14.452;2023-01-19T04:59:18;98195.22;;;1.06;65.09
43115;BME280;28727;50.068;14.452;2023-01-19T05:01:50;98199.34;;;1.09;65.25
43115;BME280;28727;50.068;14.452;2023-01-19T05:04:23;98213.59;;;1.05;65.13
43115;BME280;28727;50.068;14.452;2023-01-19T05:06:56;98198.94;;;1.04;65.09
43115;BME280;28727;50.068;14.452;2023-01-19T05:09:28;98211.00;;;1.05;65.33
43115;BME280;28727;50.068;14.452;2023-01-19T05:12:00;98214.25;;;1.07;65.22
43115;BME280;28727;50.068;14.452;2023-01-19T05:14:32;98208.09;;;1.08;65.33
43115;BME280;28727;50.068;14.452;2023-01-19T05:17:03;98221.81;;;1.10;64.96
43115;BME280;28727;50.068;14.452;2023-01-19T05:19:35;98220.97;;;1.09;65.30
43115;BME280;28727;50.068;14.452;2023-01-19T05:22:07;98219.63;;;1.05;64.96
43115;BME280;28727;50.068;14.452;2023-01-19T05:24:39;98219.06;;;1.02;64.98
43115;BME280;28727;50.068;14.452;2023-01-19T05:27:11;98221.38;;;0.95;65.05
43115;BME280;28727;50.068;14.452;2023-01-19T05:29:43;98214.56;;;0.94;64.87
43115;BME280;28727;50.068;14.452;2023-01-19T05:32:14;98225.91;;;0.93;64.82
43115;BME280;28727;50.068;14.452;2023-01-19T05:34:46;98223.56;;;0.90;64.97
43115;BME280;28727;50.068;14.452;2023-01-19T05:37:18;98222.75;;;0.90;65.09
43115;BME280;28727;50.068;14.452;2023-01-19T05:39:50;98223.16;;;0.85;65.21
43115;BME280;28727;50.068;14.452;2023-01-19T05:42:21;98229.19;;;0.86;65.16
43115;BME280;28727;50.068;14.452;2023-01-19T05:44:53;98240.53;;;0.85;65.06
43115;BME280;28727;50.068;14.452;2023-01-19T05:47:25;98236.44;;;0.82;64.91
43115;BME280;28727;50.068;14.452;2023-01-19T05:49:57;98246.13;;;0.80;65.12
43115;BME280;28727;50.068;14.452;2023-01-19T05:52:28;98248.84;;;0.78;65.14
43115;BME280;28727;50.068;14.452;2023-01-19T05:55:00;98243.13;;;0.75;64.75
43115;BME280;28727;50.068;14.452;2023-01-19T05:57:32;98247.50;;;0.74;64.98
43115;BME280;28727;50.068;14.452;2023-01-19T06:00:04;98264.03;;;0.73;64.87
43115;BME280;28727;50.068;14.452;2023-01-19T06:02:39;98269.22;;;0.73;64.93
43115;BME280;28727;50.068;14.452;2023-01-19T06:05:11;98269.63;;;0.69;64.89
43115;BME280;28727;50.068;14.452;2023-01-19T06:07:43;98274.53;;;0.62;64.70
43115;BME280;28727;50.068;14.452;2023-01-19T06:10:15;98280.97;;;0.58;64.48
43115;BME280;28727;50.068;14.452;2023-01-19T06:12:47;98286.28;;;0.57;64.84
43115;BME280;28727;50.068;14.452;2023-01-19T06:15:19;98282.88;;;0.56;64.88
43115;BME280;28727;50.068;14.452;2023-01-19T06:17:51;98288.06;;;0.56;64.79
43115;BME280;28727;50.068;14.452;2023-01-19T06:20:25;98288.31;;;0.53;64.81
43115;BME280;28727;50.068;14.452;2023-01-19T06:22:57;98289.81;;;0.46;65.06
43115;BME280;28727;50.068;14.452;2023-01-19T06:25:29;98296.78;;;0.46;65.09
43115;BME280;28727;50.068;14.452;2023-01-19T06:28:01;98286.28;;;0.47;64.84
43115;BME280;28727;50.068;14.452;2023-01-19T06:30:35;98292.00;;;0.51;64.76
43115;BME280;28727;50.068;14.452;2023-01-19T06:33:07;98292.00;;;0.51;64.80
43115;BME280;28727;50.068;14.452;2023-01-19T06:35:42;98291.47;;;0.47;64.76
43115;BME280;28727;50.068;14.452;2023-01-19T06:38:14;98292.25;;;0.48;64.68
43115;BME280;28727;50.068;14.452;2023-01-19T06:40:56;98303.63;;;0.47;64.58
43115;BME280;28727;50.068;14.452;2023-01-19T06:43:33;98298.44;;;0.47;64.63
43115;BME280;28727;50.068;14.452;2023-01-19T06:46:04;98301.16;;;0.45;64.69
43115;BME280;28727;50.068;14.452;2023-01-19T06:48:36;98304.69;;;0.44;64.84
43115;BME280;28727;50.068;14.452;2023-01-19T06:51:08;98307.00;;;0.37;64.72
43115;BME280;28727;50.068;14.452;2023-01-19T06:53:40;98315.06;;;0.34;64.67
43115;BME280;28727;50.068;14.452;2023-01-19T06:56:12;98315.59;;;0.28;64.88
43115;BME280;28727;50.068;14.452;2023-01-19T06:58:46;98326.09;;;0.27;65.06
43115;BME280;28727;50.068;14.452;2023-01-19T07:01:18;98320.06;;;0.26;65.08
43115;BME280;28727;50.068;14.452;2023-01-19T07:03:52;98319.28;;;0.35;66.27
43115;BME280;28727;50.068;14.452;2023-01-19T07:06:24;98325.06;;;0.39;65.40
43115;BME280;28727;50.068;14.452;2023-01-19T07:08:56;98318.91;;;0.40;65.41
43115;BME280;28727;50.068;14.452;2023-01-19T07:11:30;98333.28;;;0.44;65.22
43115;BME280;28727;50.068;14.452;2023-01-19T07:14:02;98332.31;;;0.45;64.99
43115;BME280;28727;50.068;14.452;2023-01-19T07:16:34;98327.56;;;0.50;64.91
43115;BME280;28727;50.068;14.452;2023-01-19T07:19:06;98326.91;;;0.58;64.59
43115;BME280;28727;50.068;14.452;2023-01-19T07:21:40;98328.69;;;0.57;64.69
43115;BME280;28727;50.068;14.452;2023-01-19T07:24:12;98323.91;;;0.62;64.73
43115;BME280;28727;50.068;14.452;2023-01-19T07:26:44;98328.81;;;0.65;64.78
43115;BME280;28727;50.068;14.452;2023-01-19T07:29:16;98328.06;;;0.74;64.57
43115;BME280;28727;50.068;14.452;2023-01-19T07:31:48;98333.94;;;0.76;64.19
43115;BME280;28727;50.068;14.452;2023-01-19T07:34:20;98338.34;;;0.86;64.01
43115;BME280;28727;50.068;14.452;2023-01-19T07:36:55;98346.16;;;0.95;63.06
43115;BME280;28727;50.068;14.452;2023-01-19T07:39:27;98349.34;;;1.08;62.54
43115;BME280;28727;50.068;14.452;2023-01-19T07:41:59;98368.13;;;1.21;62.33
43115;BME280;28727;50.068;14.452;2023-01-19T07:44:31;98370.31;;;1.26;61.49
43115;BME280;28727;50.068;14.452;2023-01-19T07:47:03;98365.69;;;1.30;61.27
43115;BME280;28727;50.068;14.452;2023-01-19T07:49:38;98363.63;;;1.33;61.47
43115;BME280;28727;50.068;14.452;2023-01-19T07:52:10;98361.19;;;1.41;61.33
43115;BME280;28727;50.068;14.452;2023-01-19T07:54:41;98361.72;;;1.54;60.90
43115;BME280;28727;50.068;14.452;2023-01-19T07:57:13;98366.38;;;1.70;60.23
43115;BME280;28727;50.068;14.452;2023-01-19T07:59:45;98368.97;;;1.89;60.22
43115;BME280;28727;50.068;14.452;2023-01-19T08:02:17;98373.63;;;2.05;59.83
43115;BME280;28727;50.068;14.452;2023-01-19T08:04:49;98369.72;;;2.38;59.09
43115;BME280;28727;50.068;14.452;2023-01-19T08:07:20;98364.25;;;2.68;57.68
43115;BME280;28727;50.068;14.452;2023-01-19T08:09:52;98366.59;;;2.99;56.44
43115;BME280;28727;50.068;14.452;2023-01-19T08:12:24;98372.16;;;3.31;57.08
43115;BME280;28727;50.068;14.452;2023-01-19T08:14:56;98363.63;;;3.56;56.75
43115;BME280;28727;50.068;14.452;2023-01-19T08:17:27;98364.81;;;3.80;56.06
43115;BME280;28727;50.068;14.452;2023-01-19T08:19:59;98369.91;;;4.07;54.65
43115;BME280;28727;50.068;14.452;2023-01-19T08:22:31;98368.28;;;4.32;54.80
43115;BME280;28727;50.068;14.452;2023-01-19T08:25:03;98371.72;;;4.32;53.12
43115;BME280;28727;50.068;14.452;2023-01-19T08:27:34;98368.44;;;4.56;52.85
43115;BME280;28727;50.068;14.452;2023-01-19T08:30:07;98371.75;;;4.58;51.95
43115;BME280;28727;50.068;14.452;2023-01-19T08:32:39;98374.22;;;4.93;52.39
43115;BME280;28727;50.068;14.452;2023-01-19T08:35:10;98377.47;;;5.54;51.17
43115;BME280;28727;50.068;14.452;2023-01-19T08:37:42;98374.44;;;6.47;49.40
43115;BME280;28727;50.068;14.452;2023-01-19T08:40:14;98379.03;;;7.39;48.03
43115;BME280;28727;50.068;14.452;2023-01-19T08:42:46;98374.81;;;8.07;44.43
43115;BME280;28727;50.068;14.452;2023-01-19T08:45:17;98370.50;;;8.81;43.58
43115;BME280;28727;50.068;14.452;2023-01-19T08:47:49;98366.56;;;9.21;43.14
43115;BME280;28727;50.068;14.452;2023-01-19T08:50:21;98375.63;;;9.69;40.36
43115;BME280;28727;50.068;14.452;2023-01-19T08:52:58;98367.78;;;10.39;38.62
43115;BME280;28727;50.068;14.452;2023-01-19T08:55:33;98379.63;;;10.78;37.92
43115;BME280;28727;50.068;14.452;2023-01-19T08:58:06;98373.00;;;10.60;37.48
43115;BME280;28727;50.068;14.452;2023-01-19T09:00:39;98384.75;;;10.86;37.73
43115;BME280;28727;50.068;14.452;2023-01-19T09:03:11;98379.72;;;11.38;36.35
43115;BME280;28727;50.068;14.452;2023-01-19T09:05:44;98375.03;;;11.88;35.48
43115;BME280;28727;50.068;14.452;2023-01-19T09:08:16;98384.44;;;12.37;34.71
43115;BME280;28727;50.068;14.452;2023-01-19T09:10:49;98377.91;;;12.39;34.21
43115;BME280;28727;50.068;14.452;2023-01-19T09:13:21;98379.50;;;12.66;34.00
43115;BME280;28727;50.068;14.452;2023-01-19T09:15:53;98365.59;;;12.84;33.39
43115;BME280;28727;50.068;14.452;2023-01-19T09:18:25;98372.19;;;12.49;33.26
43115;BME280;28727;50.068;14.452;2023-01-19T09:20:57;98371.78;;;12.25;33.26
43115;BME280;28727;50.068;14.452;2023-01-19T09:23:29;98361.81;;;12.47;33.16
43115;BME280;28727;50.068;14.452;2023-01-19T09:26:02;98371.59;;;12.27;32.90
43115;BME280;28727;50.068;14.452;2023-01-19T09:28:36;98362.81;;;12.59;33.42
43115;BME280;28727;50.068;14.452;2023-01-19T09:31:08;98371.78;;;12.65;32.50
43115;BME280;28727;50.068;14.452;2023-01-19T09:33:40;98369.59;;;13.26;32.09
43115;BME280;28727;50.068;14.452;2023-01-19T09:36:12;98360.75;;;13.45;30.98
43115;BME280;28727;50.068;14.452;2023-01-19T09:38:43;98362.25;;;13.35;31.43
43115;BME280;28727;50.068;14.452;2023-01-19T09:41:20;98365.38;;;13.57;30.08
43115;BME280;28727;50.068;14.452;2023-01-19T09:43:57;98362.03;;;14.06;30.21
43115;BME280;28727;50.068;14.452;2023-01-19T09:46:38;98365.28;;;14.64;29.07
43115;BME280;28727;50.068;14.452;2023-01-19T09:49:26;98358.97;;;15.01;28.47
43115;BME280;28727;50.068;14.452;2023-01-19T09:52:02;98363.13;;;15.45;28.07
43115;BME280;28727;50.068;14.452;2023-01-19T09:54:40;98353.44;;;15.51;28.72
43115;BME280;28727;50.068;14.452;2023-01-19T09:57:16;98355.97;;;15.94;27.31
43115;BME280;28727;50.068;14.452;2023-01-19T09:59:48;98348.78;;;15.94;26.93
43115;BME280;28727;50.068;14.452;2023-01-19T10:05:03;98350.06;;;18.00;24.98
43115;BME280;28727;50.068;14.452;2023-01-19T10:10:29;98363.78;;;17.75;23.78
43115;BME280;28727;50.068;14.452;2023-01-19T10:13:40;98365.56;;;17.18;23.77
43115;BME280;28727;50.068;14.452;2023-01-19T10:19:34;98381.34;;;15.67;25.07
43115;BME280;28727;50.068;14.452;2023-01-19T10:22:19;98384.59;;;14.96;26.11
43115;BME280;28727;50.068;14.452;2023-01-19T10:24:55;98387.63;;;14.56;27.23
43115;BME280;28727;50.068;14.452;2023-01-19T10:27:29;98386.19;;;14.79;27.69
43115;BME280;28727;50.068;14.452;2023-01-19T10:30:01;98383.16;;;14.75;27.09
43115;BME280;28727;50.068;14.452;2023-01-19T10:32:35;98382.72;;;14.28;27.65
43115;BME280;28727;50.068;14.452;2023-01-19T10:35:16;98387.63;;;14.00;27.45
43115;BME280;28727;50.068;14.452;2023-01-19T10:37:55;98385.97;;;13.17;29.88
43115;BME280;28727;50.068;14.452;2023-01-19T10:40:33;98390.59;;;13.34;29.43
43115;BME280;28727;50.068;14.452;2023-01-19T10:46:06;98407.00;;;12.00;30.94
43115;BME280;28727;50.068;14.452;2023-01-19T10:48:39;98405.53;;;11.90;31.30
43115;BME280;28727;50.068;14.452;2023-01-19T10:51:12;98402.59;;;11.59;31.43
43115;BME280;28727;50.068;14.452;2023-01-19T10:54:01;98402.00;;;11.16;31.98
43115;BME280;28727;50.068;14.452;2023-01-19T10:56:34;98401.94;;;11.09;32.67
43115;BME280;28727;50.068;14.452;2023-01-19T10:59:34;98393.19;;;10.19;34.15
43115;BME280;28727;50.068;14.452;2023-01-19T11:02:16;98409.63;;;10.00;34.77
43115;BME280;28727;50.068;14.452;2023-01-19T11:04:50;98408.41;;;9.81;34.99
43115;BME280;28727;50.068;14.452;2023-01-19T11:07:32;98403.72;;;9.62;35.42
43115;BME280;28727;50.068;14.452;2023-01-19T11:13:12;98406.75;;;9.59;36.19
43115;BME280;28727;50.068;14.452;2023-01-19T11:18:39;98393.66;;;9.65;35.92
43115;BME280;28727;50.068;14.452;2023-01-19T11:21:13;98394.66;;;9.50;36.11
43115;BME280;28727;50.068;14.452;2023-01-19T11:23:50;98396.53;;;9.20;36.12
43115;BME280;28727;50.068;14.452;2023-01-19T11:26:41;98401.09;;;8.96;36.42
43115;BME280;28727;50.068;14.452;2023-01-19T11:29:20;98390.38;;;8.54;37.25
43115;BME280;28727;50.068;14.452;2023-01-19T11:31:53;98392.53;;;8.28;38.05
43115;BME280;28727;50.068;14.452;2023-01-19T11:34:34;98395.19;;;8.05;38.22
43115;BME280;28727;50.068;14.452;2023-01-19T11:40:00;98400.94;;;7.24;39.80
43115;BME280;28727;50.068;14.452;2023-01-19T11:42:34;98398.47;;;7.22;40.37
43115;BME280;28727;50.068;14.452;2023-01-19T11:45:16;98401.19;;;7.37;40.05
43115;BME280;28727;50.068;14.452;2023-01-19T11:47:49;98404.28;;;7.10;40.20
43115;BME280;28727;50.068;14.452;2023-01-19T11:50:33;98401.34;;;7.05;40.44
43115;BME280;28727;50.068;14.452;2023-01-19T11:55:57;98388.88;;;6.98;40.92
43115;BME280;28727;50.068;14.452;2023-01-19T11:58:31;98393.47;;;6.96;41.13
43115;BME280;28727;50.068;14.452;2023-01-19T12:06:31;98388.22;;;6.33;42.00
43115;BME280;28727;50.068;14.452;2023-01-19T12:09:11;98394.13;;;6.11;42.79
43115;BME280;28727;50.068;14.452;2023-01-19T12:11:49;98390.69;;;6.10;43.31
43115;BME280;28727;50.068;14.452;2023-01-19T12:14:45;98389.69;;;5.87;43.82
43115;BME280;28727;50.068;14.452;2023-01-19T12:17:40;98379.81;;;5.73;43.96
43115;BME280;28727;50.068;14.452;2023-01-19T12:20:43;98380.28;;;5.60;44.12
43115;BME280;28727;50.068;14.452;2023-01-19T12:23:43;98376.47;;;5.39;45.13
43115;BME280;28727;50.068;14.452;2023-01-19T12:26:34;98378.38;;;5.20;45.23
43115;BME280;28727;50.068;14.452;2023-01-19T12:29:12;98374.75;;;5.13;45.43
43115;BME280;28727;50.068;14.452;2023-01-19T12:31:44;98376.56;;;5.13;45.43
43115;BME280;28727;50.068;14.452;2023-01-19T12:34:43;98375.75;;;5.12;45.31
43115;BME280;28727;50.068;14.452;2023-01-19T12:37:36;98368.69;;;5.05;45.74
43115;BME280;28727;50.068;14.452;2023-01-19T12:40:25;98367.53;;;4.99;46.37
43115;BME280;28727;50.068;14.452;2023-01-19T12:43:03;98367.28;;;4.84;46.60
43115;BME280;28727;50.068;14.452;2023-01-19T12:45:36;98359.50;;;4.67;47.02
43115;BME280;28727;50.068;14.452;2023-01-19T12:48:23;98366.78;;;4.47;47.57
43115;BME280;28727;50.068;14.452;2023-01-19T12:50:55;98365.28;;;4.44;48.03
43115;BME280;28727;50.068;14.452;2023-01-19T12:53:27;98367.59;;;4.47;47.61
43115;BME280;28727;50.068;14.452;2023-01-19T12:56:03;98370.41;;;4.28;48.13
43115;BME280;28727;50.068;14.452;2023-01-19T12:58:36;98369.22;;;4.23;48.67
43115;BME280;28727;50.068;14.452;2023-01-19T13:01:17;98365.13;;;4.20;49.22
43115;BME280;28727;50.068;14.452;2023-01-19T13:04:29;98369.53;;;4.20;49.21
43115;BME280;28727;50.068;14.452;2023-01-19T13:09:37;98376.59;;;4.27;49.42
43115;BME280;28727;50.068;14.452;2023-01-19T13:14:44;98376.06;;;3.98;50.24
43115;BME280;28727;50.068;14.452;2023-01-19T13:17:26;98372.03;;;3.86;50.27
43115;BME280;28727;50.068;14.452;2023-01-19T13:20:24;98380.78;;;3.77;49.78
43115;BME280;28727;50.068;14.452;2023-01-19T13:23:15;98381.91;;;3.74;50.04
43115;BME280;28727;50.068;14.452;2023-01-19T13:26:01;98382.13;;;3.63;51.08
43115;BME280;28727;50.068;14.452;2023-01-19T13:28:38;98389.72;;;3.56;50.90
43115;BME280;28727;50.068;14.452;2023-01-19T13:31:11;98380.31;;;3.46;50.06
43115;BME280;28727;50.068;14.452;2023-01-19T13:33:58;98391.78;;;3.35;50.83
43115;BME280;28727;50.068;14.452;2023-01-19T13:36:34;98392.59;;;3.18;51.83
43115;BME280;28727;50.068;14.452;2023-01-19T13:41:52;98390.69;;;3.10;52.34
43115;BME280;28727;50.068;14.452;2023-01-19T13:44:39;98396.28;;;3.15;52.08
43115;BME280;28727;50.068;14.452;2023-01-19T13:47:18;98393.47;;;3.26;52.07
43115;BME280;28727;50.068;14.452;2023-01-19T13:49:55;98388.94;;;3.28;51.89
43115;BME280;28727;50.068;14.452;2023-01-19T13:52:28;98395.13;;;3.27;52.07
43115;BME280;28727;50.068;14.452;2023-01-19T13:55:01;98394.50;;;3.16;52.56
43115;BME280;28727;50.068;14.452;2023-01-19T13:57:45;98397.94;;;3.16;52.09
43115;BME280;28727;50.068;14.452;2023-01-19T14:00:36;98401.22;;;3.18;52.40
43115;BME280;28727;50.068;14.452;2023-01-19T14:05:43;98400.44;;;3.08;52.29
43115;BME280;28727;50.068;14.452;2023-01-19T14:08:16;98408.56;;;3.05;52.81
43115;BME280;28727;50.068;14.452;2023-01-19T14:13:34;98409.78;;;2.74;52.92
43115;BME280;28727;50.068;14.452;2023-01-19T14:16:16;98408.00;;;2.74;52.93
43115;BME280;28727;50.068;14.452;2023-01-19T14:19:00;98406.09;;;2.76;53.77
43115;BME280;28727;50.068;14.452;2023-01-19T14:21:39;98410.31;;;2.77;53.25
43115;BME280;28727;50.068;14.452;2023-01-19T14:24:18;98419.22;;;2.84;53.42
43115;BME280;28727;50.068;14.452;2023-01-19T14:26:52;98417.81;;;2.90;52.67
43115;BME280;28727;50.068;14.452;2023-01-19T14:29:43;98418.03;;;2.69;53.52
43115;BME280;28727;50.068;14.452;2023-01-19T14:32:23;98409.28;;;2.61;53.77
43115;BME280;28727;50.068;14.452;2023-01-19T14:37:36;98415.88;;;2.55;53.85
43115;BME280;28727;50.068;14.452;2023-01-19T14:42:56;98414.78;;;2.48;53.51
43115;BME280;28727;50.068;14.452;2023-01-19T14:45:38;98411.13;;;2.41;54.43
43115;BME280;28727;50.068;14.452;2023-01-19T14:48:15;98414.00;;;2.38;53.79